sensor_id;sensor_type;location;lat;lon;timestamp;P1;durP1;ratioP1;P2;durP2;ratioP2
37349;SDS011;23231;52.358;4.926;2023-06-26T00:04:24;7.78;;;6.60;;
37349;SDS011;23231;52.358;4.926;2023-06-26T00:09:24;8.82;;;6.25;;
37349;SDS011;23231;52.358;4.926;2023-06-26T00:14:25;9.07;;;6.20;;
37349;SDS011;23231;52.358;4.926;2023-06-26T00:19:26;8.88;;;5.65;;
37349;SDS011;23231;52.358;4.926;2023-06-26T00:24:26;8.80;;;6.57;;
37349;SDS011;23231;52.358;4.926;2023-06-26T00:29:26;8.32;;;6.30;;
37349;SDS011;23231;52.358;4.926;2023-06-26T00:34:27;8.50;;;5.75;;
37349;SDS011;23231;52.358;4.926;2023-06-26T00:39:27;9.52;;;5.93;;
37349;SDS011;23231;52.358;4.926;2023-06-26T00:44:28;7.72;;;5.47;;
37349;SDS011;23231;52.358;4.926;2023-06-26T00:49:28;12.77;;;6.80;;
37349;SDS011;23231;52.358;4.926;2023-06-26T00:54:28;11.65;;;6.05;;
37349;SDS011;23231;52.358;4.926;2023-06-26T00:59:29;10.27;;;5.82;;
37349;SDS011;23231;52.358;4.926;2023-06-26T01:04:29;10.23;;;5.80;;
37349;SDS011;23231;52.358;4.926;2023-06-26T01:09:33;9.93;;;5.80;;
37349;SDS011;23231;52.358;4.926;2023-06-26T01:14:34;9.43;;;5.32;;
37349;SDS011;23231;52.358;4.926;2023-06-26T01:19:35;11.35;;;5.90;;
37349;SDS011;23231;52.358;4.926;2023-06-26T01:24:35;11.10;;;6.10;;
37349;SDS011;23231;52.358;4.926;2023-06-26T01:29:36;13.23;;;6.25;;
37349;SDS011;23231;52.358;4.926;2023-06-26T01:34:37;8.88;;;5.68;;
37349;SDS011;23231;52.358;4.926;2023-06-26T01:39:37;13.25;;;6.15;;
37349;SDS011;23231;52.358;4.926;2023-06-26T01:44:40;12.82;;;5.93;;
37349;SDS011;23231;52.358;4.926;2023-06-26T02:00:22;15.75;;;6.15;;
37349;SDS011;23231;52.358;4.926;2023-06-26T02:05:23;13.40;;;5.93;;
37349;SDS011;23231;52.358;4.926;2023-06-26T02:10:24;16.05;;;6.85;;
37349;SDS011;23231;52.358;4.926;2023-06-26T02:15:24;17.20;;;7.05;;
37349;SDS011;23231;52.358;4.926;2023-06-26T02:20:24;17.40;;;6.65;;
37349;SDS011;23231;52.358;4.926;2023-06-26T02:25:25;19.13;;;6.95;;
37349;SDS011;23231;52.358;4.926;2023-06-26T02:30:25;18.80;;;7.15;;
37349;SDS011;23231;52.358;4.926;2023-06-26T02:35:26;18.92;;;6.80;;
37349;SDS011;23231;52.358;4.926;2023-06-26T02:40:26;19.60;;;7.28;;
37349;SDS011;23231;52.358;4.926;2023-06-26T02:45:27;18.30;;;6.97;;
37349;SDS011;23231;52.358;4.926;2023-06-26T02:50:27;17.23;;;7.03;;
37349;SDS011;23231;52.358;4.926;2023-06-26T02:55:28;16.38;;;7.00;;
37349;SDS011;23231;52.358;4.926;2023-06-26T03:00:28;19.90;;;6.85;;
37349;SDS011;23231;52.358;4.926;2023-06-26T03:05:29;19.83;;;6.70;;
37349;SDS011;23231;52.358;4.926;2023-06-26T03:10:30;16.00;;;5.80;;
37349;SDS011;23231;52.358;4.926;2023-06-26T03:15:30;17.52;;;5.97;;
37349;SDS011;23231;52.358;4.926;2023-06-26T03:20:31;16.30;;;5.70;;
37349;SDS011;23231;52.358;4.926;2023-06-26T03:25:31;14.07;;;5.80;;
37349;SDS011;23231;52.358;4.926;2023-06-26T03:30:32;13.32;;;5.70;;
37349;SDS011;23231;52.358;4.926;2023-06-26T03:35:32;11.07;;;5.07;;
37349;SDS011;23231;52.358;4.926;2023-06-26T03:40:33;12.45;;;4.82;;
37349;SDS011;23231;52.358;4.926;2023-06-26T03:45:33;11.48;;;5.22;;
37349;SDS011;23231;52.358;4.926;2023-06-26T03:50:34;10.55;;;4.68;;
37349;SDS011;23231;52.358;4.926;2023-06-26T03:55:34;9.23;;;4.60;;
37349;SDS011;23231;52.358;4.926;2023-06-26T04:00:35;9.77;;;4.50;;
37349;SDS011;23231;52.358;4.926;2023-06-26T04:05:35;8.57;;;4.85;;
37349;SDS011;23231;52.358;4.926;2023-06-26T04:10:36;8.52;;;4.25;;
37349;SDS011;23231;52.358;4.926;2023-06-26T04:15:36;12.40;;;4.93;;
37349;SDS011;23231;52.358;4.926;2023-06-26T04:20:38;11.93;;;4.70;;
37349;SDS011;23231;52.358;4.926;2023-06-26T04:25:39;7.95;;;3.80;;
37349;SDS011;23231;52.358;4.926;2023-06-26T04:30:39;5.85;;;3.75;;
37349;SDS011;23231;52.358;4.926;2023-06-26T04:35:40;9.82;;;4.50;;
37349;SDS011;23231;52.358;4.926;2023-06-26T04:40:40;9.00;;;4.15;;
37349;SDS011;23231;52.358;4.926;2023-06-26T04:45:41;8.57;;;3.78;;
37349;SDS011;23231;52.358;4.926;2023-06-26T04:50:42;6.40;;;2.88;;
37349;SDS011;23231;52.358;4.926;2023-06-26T04:55:42;10.25;;;3.88;;
37349;SDS011;23231;52.358;4.926;2023-06-26T05:00:42;7.60;;;3.35;;
37349;SDS011;23231;52.358;4.926;2023-06-26T05:05:43;8.73;;;3.85;;
37349;SDS011;23231;52.358;4.926;2023-06-26T05:10:44;10.98;;;3.78;;
37349;SDS011;23231;52.358;4.926;2023-06-26T05:15:48;9.82;;;3.75;;
37349;SDS011;23231;52.358;4.926;2023-06-26T05:20:48;7.13;;;3.35;;
37349;SDS011;23231;52.358;4.926;2023-06-26T05:25:49;9.52;;;3.10;;
37349;SDS011;23231;52.358;4.926;2023-06-26T05:30:50;13.00;;;3.65;;
37349;SDS011;23231;52.358;4.926;2023-06-26T05:35:52;7.32;;;3.53;;
37349;SDS011;23231;52.358;4.926;2023-06-26T05:40:53;7.90;;;2.97;;
37349;SDS011;23231;52.358;4.926;2023-06-26T05:45:53;10.93;;;3.70;;
37349;SDS011;23231;52.358;4.926;2023-06-26T05:50:54;9.10;;;3.50;;
37349;SDS011;23231;52.358;4.926;2023-06-26T05:55:55;7.88;;;3.10;;
37349;SDS011;23231;52.358;4.926;2023-06-26T06:00:55;8.93;;;3.50;;
37349;SDS011;23231;52.358;4.926;2023-06-26T06:05:56;9.68;;;3.50;;
37349;SDS011;23231;52.358;4.926;2023-06-26T06:10:56;8.80;;;3.63;;
37349;SDS011;23231;52.358;4.926;2023-06-26T06:15:57;6.63;;;3.25;;
37349;SDS011;23231;52.358;4.926;2023-06-26T06:20:57;8.77;;;3.60;;
37349;SDS011;23231;52.358;4.926;2023-06-26T06:25:58;7.65;;;3.25;;
37349;SDS011;23231;52.358;4.926;2023-06-26T06:30:58;7.55;;;3.85;;
37349;SDS011;23231;52.358;4.926;2023-06-26T06:35:59;8.60;;;3.72;;
37349;SDS011;23231;52.358;4.926;2023-06-26T06:41:02;11.10;;;3.85;;
37349;SDS011;23231;52.358;4.926;2023-06-26T06:46:02;8.93;;;3.42;;
37349;SDS011;23231;52.358;4.926;2023-06-26T06:51:02;12.27;;;4.38;;
37349;SDS011;23231;52.358;4.926;2023-06-26T06:56:03;9.77;;;3.10;;
37349;SDS011;23231;52.358;4.926;2023-06-26T07:01:04;9.60;;;3.90;;
37349;SDS011;23231;52.358;4.926;2023-06-26T07:06:05;15.63;;;4.00;;
37349;SDS011;23231;52.358;4.926;2023-06-26T07:11:06;9.23;;;3.40;;
37349;SDS011;23231;52.358;4.926;2023-06-26T07:16:06;12.95;;;3.25;;
37349;SDS011;23231;52.358;4.926;2023-06-26T07:21:07;9.18;;;3.17;;
37349;SDS011;23231;52.358;4.926;2023-06-26T07:26:08;9.95;;;2.58;;
37349;SDS011;23231;52.358;4.926;2023-06-26T07:31:08;13.40;;;3.00;;
37349;SDS011;23231;52.358;4.926;2023-06-26T07:36:09;7.90;;;2.70;;
37349;SDS011;23231;52.358;4.926;2023-06-26T07:41:09;7.95;;;2.70;;
37349;SDS011;23231;52.358;4.926;2023-06-26T07:46:10;7.22;;;2.67;;
37349;SDS011;23231;52.358;4.926;2023-06-26T07:51:10;8.38;;;2.60;;
37349;SDS011;23231;52.358;4.926;2023-06-26T07:56:10;11.95;;;2.97;;
37349;SDS011;23231;52.358;4.926;2023-06-26T08:01:11;7.60;;;2.60;;
37349;SDS011;23231;52.358;4.926;2023-06-26T08:06:11;9.45;;;3.83;;
37349;SDS011;23231;52.358;4.926;2023-06-26T08:11:12;6.60;;;2.42;;
37349;SDS011;23231;52.358;4.926;2023-06-26T08:16:12;8.35;;;2.70;;
37349;SDS011;23231;52.358;4.926;2023-06-26T08:21:12;7.18;;;2.75;;
37349;SDS011;23231;52.358;4.926;2023-06-26T08:26:13;7.55;;;2.90;;
37349;SDS011;23231;52.358;4.926;2023-06-26T08:31:14;7.15;;;2.40;;
37349;SDS011;23231;52.358;4.926;2023-06-26T08:36:14;9.52;;;2.42;;
37349;SDS011;23231;52.358;4.926;2023-06-26T08:41:15;8.90;;;2.25;;
37349;SDS011;23231;52.358;4.926;2023-06-26T08:46:15;12.95;;;3.13;;
37349;SDS011;23231;52.358;4.926;2023-06-26T08:51:16;5.43;;;2.60;;
37349;SDS011;23231;52.358;4.926;2023-06-26T08:56:18;9.00;;;2.63;;
37349;SDS011;23231;52.358;4.926;2023-06-26T09:01:21;8.93;;;2.85;;
37349;SDS011;23231;52.358;4.926;2023-06-26T09:06:23;7.90;;;2.47;;
37349;SDS011;23231;52.358;4.926;2023-06-26T09:11:24;6.97;;;2.05;;
37349;SDS011;23231;52.358;4.926;2023-06-26T09:16:25;6.20;;;2.30;;
37349;SDS011;23231;52.358;4.926;2023-06-26T09:21:28;6.30;;;1.80;;
37349;SDS011;23231;52.358;4.926;2023-06-26T09:26:29;9.65;;;1.63;;
37349;SDS011;23231;52.358;4.926;2023-06-26T09:31:30;5.80;;;1.83;;
37349;SDS011;23231;52.358;4.926;2023-06-26T09:36:32;7.82;;;2.15;;
37349;SDS011;23231;52.358;4.926;2023-06-26T09:41:33;4.90;;;1.52;;
37349;SDS011;23231;52.358;4.926;2023-06-26T09:46:34;4.18;;;1.40;;
37349;SDS011;23231;52.358;4.926;2023-06-26T09:51:38;6.95;;;1.80;;
37349;SDS011;23231;52.358;4.926;2023-06-26T09:56:43;6.83;;;1.50;;
37349;SDS011;23231;52.358;4.926;2023-06-26T10:06:48;4.78;;;1.83;;
37349;SDS011;23231;52.358;4.926;2023-06-26T10:11:56;6.40;;;2.00;;
37349;SDS011;23231;52.358;4.926;2023-06-26T10:16:58;7.60;;;1.90;;
37349;SDS011;23231;52.358;4.926;2023-06-26T10:22:00;6.10;;;2.03;;
37349;SDS011;23231;52.358;4.926;2023-06-26T10:27:12;5.97;;;1.98;;
37349;SDS011;23231;52.358;4.926;2023-06-26T10:32:16;8.68;;;1.65;;
37349;SDS011;23231;52.358;4.926;2023-06-26T10:37:17;5.40;;;1.88;;
37349;SDS011;23231;52.358;4.926;2023-06-26T10:42:18;6.80;;;1.63;;
37349;SDS011;23231;52.358;4.926;2023-06-26T10:47:28;5.40;;;1.77;;
37349;SDS011;23231;52.358;4.926;2023-06-26T10:52:29;8.48;;;2.45;;
37349;SDS011;23231;52.358;4.926;2023-06-26T10:57:30;7.20;;;2.10;;
37349;SDS011;23231;52.358;4.926;2023-06-26T11:02:41;8.38;;;2.03;;
37349;SDS011;23231;52.358;4.926;2023-06-26T11:08:03;6.50;;;2.03;;
37349;SDS011;23231;52.358;4.926;2023-06-26T11:13:08;5.93;;;1.80;;
37349;SDS011;23231;52.358;4.926;2023-06-26T11:18:08;6.15;;;1.77;;
37349;SDS011;23231;52.358;4.926;2023-06-26T11:23:09;7.78;;;1.75;;
37349;SDS011;23231;52.358;4.926;2023-06-26T11:28:10;5.72;;;2.00;;
37349;SDS011;23231;52.358;4.926;2023-06-26T11:33:11;5.28;;;1.73;;
37349;SDS011;23231;52.358;4.926;2023-06-26T11:38:11;10.23;;;2.10;;
37349;SDS011;23231;52.358;4.926;2023-06-26T11:43:11;6.80;;;2.40;;
37349;SDS011;23231;52.358;4.926;2023-06-26T11:48:13;6.80;;;1.88;;
37349;SDS011;23231;52.358;4.926;2023-06-26T11:53:14;6.82;;;1.83;;
37349;SDS011;23231;52.358;4.926;2023-06-26T11:58:15;5.38;;;2.05;;
37349;SDS011;23231;52.358;4.926;2023-06-26T12:03:15;8.50;;;1.90;;
37349;SDS011;23231;52.358;4.926;2023-06-26T12:08:16;7.68;;;1.70;;
37349;SDS011;23231;52.358;4.926;2023-06-26T12:13:16;5.53;;;1.55;;
37349;SDS011;23231;52.358;4.926;2023-06-26T12:18:17;7.97;;;1.98;;
37349;SDS011;23231;52.358;4.926;2023-06-26T12:23:17;5.40;;;1.73;;
37349;SDS011;23231;52.358;4.926;2023-06-26T12:28:18;5.53;;;1.85;;
37349;SDS011;23231;52.358;4.926;2023-06-26T12:33:18;6.95;;;1.83;;
37349;SDS011;23231;52.358;4.926;2023-06-26T12:38:19;5.03;;;1.77;;
37349;SDS011;23231;52.358;4.926;2023-06-26T12:43:26;7.78;;;2.10;;
37349;SDS011;23231;52.358;4.926;2023-06-26T12:48:39;5.68;;;2.10;;
37349;SDS011;23231;52.358;4.926;2023-06-26T12:53:43;7.53;;;2.17;;
37349;SDS011;23231;52.358;4.926;2023-06-26T12:58:44;6.53;;;1.70;;
37349;SDS011;23231;52.358;4.926;2023-06-26T13:03:44;6.70;;;1.80;;
37349;SDS011;23231;52.358;4.926;2023-06-26T13:08:45;7.13;;;1.67;;
37349;SDS011;23231;52.358;4.926;2023-06-26T13:13:45;4.35;;;1.98;;
37349;SDS011;23231;52.358;4.926;2023-06-26T13:18:47;4.38;;;1.63;;
37349;SDS011;23231;52.358;4.926;2023-06-26T13:23:47;7.22;;;1.45;;
37349;SDS011;23231;52.358;4.926;2023-06-26T13:28:48;4.65;;;1.80;;
37349;SDS011;23231;52.358;4.926;2023-06-26T13:33:49;4.70;;;1.48;;
37349;SDS011;23231;52.358;4.926;2023-06-26T13:38:50;4.15;;;1.50;;
37349;SDS011;23231;52.358;4.926;2023-06-26T13:43:55;5.05;;;1.75;;
37349;SDS011;23231;52.358;4.926;2023-06-26T13:48:55;3.85;;;1.70;;
37349;SDS011;23231;52.358;4.926;2023-06-26T13:53:56;5.43;;;1.73;;
37349;SDS011;23231;52.358;4.926;2023-06-26T13:59:00;6.30;;;1.92;;
37349;SDS011;23231;52.358;4.926;2023-06-26T14:04:00;5.50;;;1.73;;
37349;SDS011;23231;52.358;4.926;2023-06-26T14:09:01;5.25;;;1.80;;
37349;SDS011;23231;52.358;4.926;2023-06-26T14:14:01;8.65;;;1.85;;
37349;SDS011;23231;52.358;4.926;2023-06-26T14:19:02;4.70;;;1.80;;
37349;SDS011;23231;52.358;4.926;2023-06-26T14:24:02;7.82;;;2.08;;
37349;SDS011;23231;52.358;4.926;2023-06-26T14:29:03;8.00;;;2.20;;
37349;SDS011;23231;52.358;4.926;2023-06-26T14:34:03;4.03;;;1.60;;
37349;SDS011;23231;52.358;4.926;2023-06-26T14:39:04;3.33;;;1.50;;
37349;SDS011;23231;52.358;4.926;2023-06-26T14:44:04;8.60;;;2.58;;
37349;SDS011;23231;52.358;4.926;2023-06-26T14:49:08;6.45;;;1.65;;
37349;SDS011;23231;52.358;4.926;2023-06-26T14:54:08;5.88;;;1.50;;
37349;SDS011;23231;52.358;4.926;2023-06-26T14:59:09;4.50;;;1.70;;
37349;SDS011;23231;52.358;4.926;2023-06-26T15:04:10;5.97;;;1.60;;
37349;SDS011;23231;52.358;4.926;2023-06-26T15:09:11;4.38;;;1.40;;
37349;SDS011;23231;52.358;4.926;2023-06-26T15:14:11;4.75;;;1.50;;
37349;SDS011;23231;52.358;4.926;2023-06-26T15:19:12;3.83;;;1.13;;
37349;SDS011;23231;52.358;4.926;2023-06-26T15:24:13;3.75;;;1.40;;
37349;SDS011;23231;52.358;4.926;2023-06-26T15:29:13;5.13;;;1.50;;
37349;SDS011;23231;52.358;4.926;2023-06-26T15:34:15;5.03;;;1.70;;
37349;SDS011;23231;52.358;4.926;2023-06-26T15:39:15;4.03;;;1.50;;
37349;SDS011;23231;52.358;4.926;2023-06-26T15:44:17;6.85;;;2.55;;
37349;SDS011;23231;52.358;4.926;2023-06-26T15:49:18;5.88;;;2.25;;
37349;SDS011;23231;52.358;4.926;2023-06-26T15:54:18;6.05;;;2.65;;
37349;SDS011;23231;52.358;4.926;2023-06-26T15:59:18;4.38;;;1.70;;
37349;SDS011;23231;52.358;4.926;2023-06-26T16:04:19;4.00;;;1.50;;
37349;SDS011;23231;52.358;4.926;2023-06-26T16:09:21;3.83;;;1.58;;
37349;SDS011;23231;52.358;4.926;2023-06-26T16:14:22;4.63;;;1.50;;
37349;SDS011;23231;52.358;4.926;2023-06-26T16:19:22;4.93;;;1.77;;
37349;SDS011;23231;52.358;4.926;2023-06-26T16:24:22;7.18;;;2.03;;
37349;SDS011;23231;52.358;4.926;2023-06-26T16:29:23;5.70;;;1.80;;
37349;SDS011;23231;52.358;4.926;2023-06-26T16:34:23;7.75;;;3.00;;
37349;SDS011;23231;52.358;4.926;2023-06-26T16:39:24;5.43;;;1.90;;
37349;SDS011;23231;52.358;4.926;2023-06-26T16:44:24;9.27;;;2.38;;
37349;SDS011;23231;52.358;4.926;2023-06-26T16:49:25;5.57;;;1.63;;
37349;SDS011;23231;52.358;4.926;2023-06-26T16:54:26;5.50;;;1.58;;
37349;SDS011;23231;52.358;4.926;2023-06-26T16:59:26;7.50;;;1.67;;
37349;SDS011;23231;52.358;4.926;2023-06-26T17:04:27;6.13;;;2.67;;
37349;SDS011;23231;52.358;4.926;2023-06-26T17:09:29;6.78;;;1.50;;
37349;SDS011;23231;52.358;4.926;2023-06-26T17:14:29;4.28;;;1.70;;
37349;SDS011;23231;52.358;4.926;2023-06-26T17:19:29;7.15;;;1.90;;
37349;SDS011;23231;52.358;4.926;2023-06-26T17:24:31;5.60;;;1.77;;
37349;SDS011;23231;52.358;4.926;2023-06-26T17:29:33;6.03;;;1.95;;
37349;SDS011;23231;52.358;4.926;2023-06-26T17:34:33;8.27;;;2.30;;
37349;SDS011;23231;52.358;4.926;2023-06-26T17:39:34;3.83;;;1.63;;
37349;SDS011;23231;52.358;4.926;2023-06-26T17:44:34;7.28;;;2.92;;
37349;SDS011;23231;52.358;4.926;2023-06-26T17:49:35;5.53;;;1.65;;
37349;SDS011;23231;52.358;4.926;2023-06-26T17:54:35;6.13;;;2.60;;
37349;SDS011;23231;52.358;4.926;2023-06-26T17:59:36;5.25;;;1.90;;
37349;SDS011;23231;52.358;4.926;2023-06-26T18:04:36;4.85;;;1.65;;
37349;SDS011;23231;52.358;4.926;2023-06-26T18:09:37;4.13;;;1.90;;
37349;SDS011;23231;52.358;4.926;2023-06-26T18:14:37;6.53;;;2.20;;
37349;SDS011;23231;52.358;4.926;2023-06-26T18:19:38;4.03;;;1.65;;
37349;SDS011;23231;52.358;4.926;2023-06-26T18:24:38;4.13;;;1.60;;
37349;SDS011;23231;52.358;4.926;2023-06-26T18:29:38;5.45;;;2.13;;
37349;SDS011;23231;52.358;4.926;2023-06-26T18:34:39;7.40;;;3.45;;
37349;SDS011;23231;52.358;4.926;2023-06-26T18:39:39;7.90;;;2.08;;
37349;SDS011;23231;52.358;4.926;2023-06-26T18:44:40;6.25;;;2.10;;
37349;SDS011;23231;52.358;4.926;2023-06-26T18:49:44;8.82;;;2.33;;
37349;SDS011;23231;52.358;4.926;2023-06-26T18:54:44;7.82;;;2.60;;
37349;SDS011;23231;52.358;4.926;2023-06-26T18:59:44;7.45;;;2.90;;
37349;SDS011;23231;52.358;4.926;2023-06-26T19:04:45;7.85;;;2.75;;
37349;SDS011;23231;52.358;4.926;2023-06-26T19:09:45;6.28;;;2.00;;
37349;SDS011;23231;52.358;4.926;2023-06-26T19:14:46;6.32;;;2.45;;
37349;SDS011;23231;52.358;4.926;2023-06-26T19:19:46;7.88;;;2.67;;
37349;SDS011;23231;52.358;4.926;2023-06-26T19:24:46;11.02;;;3.35;;
37349;SDS011;23231;52.358;4.926;2023-06-26T19:29:47;5.95;;;2.22;;
37349;SDS011;23231;52.358;4.926;2023-06-26T19:34:47;6.15;;;2.80;;
37349;SDS011;23231;52.358;4.926;2023-06-26T19:39:48;7.78;;;2.65;;
37349;SDS011;23231;52.358;4.926;2023-06-26T19:44:48;5.30;;;2.10;;
37349;SDS011;23231;52.358;4.926;2023-06-26T19:49:48;4.47;;;2.08;;
37349;SDS011;23231;52.358;4.926;2023-06-26T19:54:49;7.70;;;2.45;;
37349;SDS011;23231;52.358;4.926;2023-06-26T19:59:49;6.28;;;2.60;;
37349;SDS011;23231;52.358;4.926;2023-06-26T20:04:50;7.90;;;2.67;;
37349;SDS011;23231;52.358;4.926;2023-06-26T20:09:50;10.43;;;2.83;;
37349;SDS011;23231;52.358;4.926;2023-06-26T20:14:51;7.95;;;3.10;;
37349;SDS011;23231;52.358;4.926;2023-06-26T20:19:51;6.70;;;2.63;;
37349;SDS011;23231;52.358;4.926;2023-06-26T20:24:52;6.22;;;2.78;;
37349;SDS011;23231;52.358;4.926;2023-06-26T20:29:52;10.65;;;3.58;;
37349;SDS011;23231;52.358;4.926;2023-06-26T20:34:53;8.60;;;3.50;;
37349;SDS011;23231;52.358;4.926;2023-06-26T20:39:53;7.60;;;3.15;;
37349;SDS011;23231;52.358;4.926;2023-06-26T20:44:54;8.73;;;3.20;;
37349;SDS011;23231;52.358;4.926;2023-06-26T20:49:57;8.75;;;3.05;;
37349;SDS011;23231;52.358;4.926;2023-06-26T20:54:58;8.98;;;3.83;;
37349;SDS011;23231;52.358;4.926;2023-06-26T20:59:58;9.10;;;3.15;;
37349;SDS011;23231;52.358;4.926;2023-06-26T21:05:00;9.18;;;3.72;;
37349;SDS011;23231;52.358;4.926;2023-06-26T21:10:02;8.20;;;3.70;;
37349;SDS011;23231;52.358;4.926;2023-06-26T21:15:03;8.13;;;3.78;;
37349;SDS011;23231;52.358;4.926;2023-06-26T21:20:04;11.20;;;4.10;;
37349;SDS011;23231;52.358;4.926;2023-06-26T21:25:05;10.90;;;4.10;;
37349;SDS011;23231;52.358;4.926;2023-06-26T21:30:05;13.00;;;3.53;;
37349;SDS011;23231;52.358;4.926;2023-06-26T21:35:08;8.07;;;3.60;;
37349;SDS011;23231;52.358;4.926;2023-06-26T21:40:08;10.13;;;3.55;;
37349;SDS011;23231;52.358;4.926;2023-06-26T21:45:09;9.82;;;3.55;;
37349;SDS011;23231;52.358;4.926;2023-06-26T21:50:10;9.85;;;3.45;;
37349;SDS011;23231;52.358;4.926;2023-06-26T21:55:10;11.43;;;4.15;;
37349;SDS011;23231;52.358;4.926;2023-06-26T22:00:11;9.30;;;3.50;;
37349;SDS011;23231;52.358;4.926;2023-06-26T22:05:12;13.27;;;3.97;;
37349;SDS011;23231;52.358;4.926;2023-06-26T22:10:13;10.45;;;3.97;;
37349;SDS011;23231;52.358;4.926;2023-06-26T22:15:14;9.73;;;3.67;;
37349;SDS011;23231;52.358;4.926;2023-06-26T22:20:15;7.97;;;3.60;;
37349;SDS011;23231;52.358;4.926;2023-06-26T22:25:16;9.60;;;3.85;;
37349;SDS011;23231;52.358;4.926;2023-06-26T22:30:17;8.82;;;4.05;;
37349;SDS011;23231;52.358;4.926;2023-06-26T22:35:18;13.77;;;4.28;;
37349;SDS011;23231;52.358;4.926;2023-06-26T22:40:19;9.52;;;4.15;;
37349;SDS011;23231;52.358;4.926;2023-06-26T22:45:19;9.50;;;3.80;;
37349;SDS011;23231;52.358;4.926;2023-06-26T22:50:20;12.50;;;3.92;;
37349;SDS011;23231;52.358;4.926;2023-06-26T22:55:20;12.52;;;3.90;;
37349;SDS011;23231;52.358;4.926;2023-06-26T23:00:21;10.40;;;4.00;;
37349;SDS011;23231;52.358;4.926;2023-06-26T23:05:21;12.68;;;3.80;;
37349;SDS011;23231;52.358;4.926;2023-06-26T23:10:22;9.80;;;3.92;;
37349;SDS011;23231;52.358;4.926;2023-06-26T23:15:22;9.50;;;3.85;;
37349;SDS011;23231;52.358;4.926;2023-06-26T23:20:23;10.93;;;4.00;;
37349;SDS011;23231;52.358;4.926;2023-06-26T23:25:24;14.98;;;4.38;;
37349;SDS011;23231;52.358;4.926;2023-06-26T23:30:32;11.10;;;4.15;;
37349;SDS011;23231;52.358;4.926;2023-06-26T23:35:33;9.70;;;3.50;;
37349;SDS011;23231;52.358;4.926;2023-06-26T23:40:33;12.38;;;4.10;;
37349;SDS011;23231;52.358;4.926;2023-06-26T23:45:34;13.50;;;3.58;;
37349;SDS011;23231;52.358;4.926;2023-06-26T23:50:34;9.65;;;4.35;;
37349;SDS011;23231;52.358;4.926;2023-06-26T23:55:35;10.35;;;3.60;;
